Time;durP1;ratioP1;P1;durP2;ratioP2;P2;SDS_P1;SDS_P2;PMS_P1;PMS_P2;Temp;Humidity;BMP_temperature;BMP_pressure;BME280_temperature;BME280_humidity;BME280_pressure;Samples;Min_cycle;Max_cycle;Signal;HPM_P1;HPM_P2
2023/05/27 00:00:08;;;;;;;6.10;4.85;;;25.50;55.50;;;;;;5070744;28;20040;-72
2023/05/27 00:02:34;;;;;;;5.75;4.90;;;25.30;55.60;;;;;;5070848;28;20363;-73
2023/05/27 00:05:00;;;;;;;5.53;4.35;;;25.40;55.60;;;;;;5070953;28;20043;-73
2023/05/27 00:07:27;;;;;;;5.55;4.93;;;25.30;55.60;;;;;;5071009;28;20040;-73
2023/05/27 00:09:54;;;;;;;6.63;4.72;;;25.20;55.50;;;;;;5070707;28;20055;-73
2023/05/27 00:12:20;;;;;;;7.25;4.72;;;25.30;55.50;;;;;;5070722;28;20060;-73
2023/05/27 00:14:46;;;;;;;5.90;5.10;;;25.40;55.50;;;;;;5069365;28;20392;-72
2023/05/27 00:17:15;;;;;;;5.22;4.43;;;25.30;55.60;;;;;;5070189;28;20120;-73
2023/05/27 00:19:44;;;;;;;8.10;4.50;;;25.30;55.60;;;;;;5073268;28;20063;-72
2023/05/27 00:22:11;;;;;;;7.90;4.55;;;25.40;55.70;;;;;;5069147;28;20088;-72
2023/05/27 00:24:39;;;;;;;7.07;4.25;;;25.20;55.70;;;;;;5070278;28;20476;-72
2023/05/27 00:27:06;;;;;;;4.75;3.97;;;25.30;55.60;;;;;;5070064;28;20090;-72
2023/05/27 00:29:33;;;;;;;5.20;4.30;;;25.40;55.60;;;;;;5069093;28;20119;-72
2023/05/27 00:32:02;;;;;;;6.30;3.85;;;25.40;55.30;;;;;;5071344;28;20033;-72
2023/05/27 00:34:33;;;;;;;5.07;3.65;;;25.40;55.40;;;;;;5074102;28;20028;-72
2023/05/27 00:37:00;;;;;;;4.63;3.72;;;25.40;55.30;;;;;;5072670;28;20079;-72
2023/05/27 00:39:26;;;;;;;6.30;4.35;;;25.50;55.30;;;;;;5072858;28;20380;-72
2023/05/27 00:41:54;;;;;;;5.85;3.83;;;25.50;55.20;;;;;;5085045;28;20509;-73
2023/05/27 00:44:20;;;;;;;5.22;3.67;;;25.70;55.20;;;;;;5093811;28;20093;-73
2023/05/27 00:46:48;;;;;;;8.48;3.75;;;25.60;55.10;;;;;;5094109;28;20036;-72
2023/05/27 00:49:14;;;;;;;4.72;4.13;;;25.60;55.00;;;;;;5094023;28;20036;-72
2023/05/27 00:51:40;;;;;;;4.63;3.58;;;25.60;55.10;;;;;;5092947;28;20036;-72
2023/05/27 00:54:08;;;;;;;7.07;4.05;;;25.60;55.10;;;;;;5093755;28;20071;-73
2023/05/27 00:56:34;;;;;;;4.85;3.70;;;25.50;55.20;;;;;;5092608;28;20032;-72
2023/05/27 00:59:01;;;;;;;4.63;4.15;;;25.50;55.10;;;;;;5075726;28;20036;-71
2023/05/27 01:01:28;;;;;;;6.35;4.13;;;25.40;55.20;;;;;;5092541;28;20206;-71
2023/05/27 01:03:56;;;;;;;6.20;4.15;;;25.40;55.30;;;;;;5092465;28;20061;-72
2023/05/27 01:06:37;;;;;;;6.97;3.70;;;25.40;55.20;;;;;;5092369;28;20028;-71
2023/05/27 01:09:21;;;;;;;6.75;3.97;;;25.30;55.30;;;;;;5092548;28;20441;-72
2023/05/27 01:12:10;;;;;;;4.13;3.45;;;25.40;55.40;;;;;;5093608;28;20054;-72
2023/05/27 01:14:39;;;;;;;4.82;3.72;;;25.30;55.50;;;;;;5090924;28;20040;-73
2023/05/27 01:17:09;;;;;;;4.97;3.90;;;25.30;55.30;;;;;;5091012;28;20058;-72
2023/05/27 01:19:42;;;;;;;5.32;4.03;;;25.30;55.60;;;;;;5073795;28;20462;-73
2023/05/27 01:22:12;;;;;;;5.38;3.65;;;25.40;55.60;;;;;;5073770;28;20496;-73
2023/05/27 01:24:38;;;;;;;5.30;4.10;;;25.50;55.60;;;;;;5090801;28;20059;-73
2023/05/27 01:27:04;;;;;;;6.40;3.67;;;25.30;55.60;;;;;;5090825;28;20128;-72
2023/05/27 01:29:31;;;;;;;4.88;4.03;;;25.40;55.60;;;;;;5090851;28;20040;-73
2023/05/27 01:32:26;;;;;;;5.13;3.60;;;25.40;55.60;;;;;;5073844;28;20117;-72
2023/05/27 01:35:19;;;;;;;6.45;3.92;;;25.30;55.70;;;;;;5090840;28;20565;-73
2023/05/27 01:37:47;;;;;;;4.65;3.33;;;25.40;55.60;;;;;;5073126;28;20036;-72
2023/05/27 01:40:14;;;;;;;4.95;3.60;;;25.40;55.60;;;;;;5065843;28;20480;-73
2023/05/27 01:42:41;;;;;;;5.30;3.92;;;25.50;55.60;;;;;;5053607;28;20043;-72
2023/05/27 01:45:09;;;;;;;6.20;4.60;;;25.40;55.60;;;;;;5070252;28;20066;-73
2023/05/27 01:47:36;;;;;;;4.82;3.90;;;25.40;55.70;;;;;;5020498;28;20028;-72
2023/05/27 01:50:03;;;;;;;5.93;4.18;;;25.40;55.80;;;;;;5053403;28;20040;-72
2023/05/27 01:52:29;;;;;;;4.10;3.53;;;25.40;55.80;;;;;;5086340;28;20161;-72
2023/05/27 01:54:56;;;;;;;9.88;4.93;;;25.30;55.80;;;;;;5091822;28;20028;-73
2023/05/27 01:57:24;;;;;;;4.93;3.95;;;25.30;55.80;;;;;;5091339;28;20035;-73
2023/05/27 01:59:51;;;;;;;6.20;4.43;;;25.30;55.90;;;;;;5091216;28;20074;-73
2023/05/27 02:02:17;;;;;;;10.07;4.55;;;25.20;55.90;;;;;;5074394;28;20028;-72
2023/05/27 02:04:43;;;;;;;7.65;5.00;;;25.20;55.90;;;;;;5092287;28;20036;-72
2023/05/27 02:07:10;;;;;;;6.03;4.50;;;25.30;56.00;;;;;;5091198;28;20046;-72
2023/05/27 02:09:36;;;;;;;7.13;4.72;;;25.20;56.10;;;;;;5092482;28;20032;-72
2023/05/27 02:12:03;;;;;;;8.20;4.40;;;25.30;56.20;;;;;;5091151;28;20083;-72
2023/05/27 02:14:31;;;;;;;5.72;4.20;;;25.20;56.20;;;;;;5091094;28;20119;-72
2023/05/27 02:16:57;;;;;;;6.80;4.20;;;25.20;56.20;;;;;;5092131;28;20024;-72
2023/05/27 02:19:25;;;;;;;6.13;4.30;;;25.30;56.20;;;;;;5077979;28;20536;-72
2023/05/27 02:21:51;;;;;;;11.13;4.20;;;25.20;56.20;;;;;;5071746;28;20124;-72
2023/05/27 02:24:17;;;;;;;8.68;5.15;;;25.20;56.20;;;;;;5070666;28;20035;-72
2023/05/27 02:26:43;;;;;;;7.60;4.18;;;25.20;56.20;;;;;;5089428;28;20055;-72
2023/05/27 02:29:10;;;;;;;4.72;4.20;;;25.20;56.20;;;;;;5072624;28;20438;-73
2023/05/27 02:31:36;;;;;;;5.10;4.22;;;25.30;56.10;;;;;;5089744;28;20456;-72
2023/05/27 02:34:02;;;;;;;5.30;4.50;;;25.30;56.10;;;;;;5072684;28;20039;-73
2023/05/27 02:36:28;;;;;;;6.13;4.05;;;25.30;55.90;;;;;;5071934;28;20419;-73
2023/05/27 02:38:54;;;;;;;5.15;4.10;;;25.20;56.00;;;;;;5092680;28;20439;-73
2023/05/27 02:41:20;;;;;;;6.38;4.53;;;25.30;55.90;;;;;;5092913;28;20040;-73
2023/05/27 02:43:46;;;;;;;5.88;4.65;;;25.30;55.70;;;;;;5109643;28;20122;-72
2023/05/27 02:46:12;;;;;;;8.98;4.90;;;25.30;55.80;;;;;;5109830;28;20464;-72
2023/05/27 02:48:38;;;;;;;7.35;5.07;;;25.30;55.80;;;;;;5092548;28;20040;-73
2023/05/27 02:51:04;;;;;;;6.50;5.43;;;25.30;55.90;;;;;;5092677;28;20044;-72
2023/05/27 02:53:30;;;;;;;6.65;4.90;;;25.20;55.90;;;;;;5092637;28;20039;-73
2023/05/27 02:55:56;;;;;;;8.20;4.78;;;25.30;55.80;;;;;;5075274;28;20023;-72
2023/05/27 02:58:22;;;;;;;7.22;4.65;;;25.30;55.80;;;;;;5092232;28;20565;-72
2023/05/27 03:00:48;;;;;;;6.53;4.18;;;25.30;55.90;;;;;;5109210;28;20040;-72
2023/05/27 03:03:15;;;;;;;5.68;4.20;;;25.20;56.00;;;;;;5090053;28;20171;-72
2023/05/27 03:05:41;;;;;;;6.07;4.18;;;25.20;56.00;;;;;;5091594;28;20032;-71
2023/05/27 03:08:08;;;;;;;7.70;4.65;;;25.40;55.60;;;;;;5090184;28;20070;-71
2023/05/27 03:10:35;;;;;;;5.05;4.00;;;25.30;55.40;;;;;;5090240;28;20031;-73
2023/05/27 03:13:01;;;;;;;6.93;4.15;;;25.30;55.60;;;;;;5090236;28;20050;-72
2023/05/27 03:15:31;;;;;;;5.20;4.32;;;25.40;55.30;;;;;;5090028;28;20703;-72
2023/05/27 03:17:57;;;;;;;7.15;4.32;;;25.40;55.50;;;;;;5088633;28;20048;-73
2023/05/27 03:20:24;;;;;;;6.10;4.35;;;25.40;55.40;;;;;;5088887;28;20052;-73
2023/05/27 03:22:50;;;;;;;8.30;4.88;;;25.40;55.30;;;;;;5071560;28;20048;-72
2023/05/27 03:25:17;;;;;;;8.07;4.38;;;25.50;55.40;;;;;;5071964;28;20028;-72
2023/05/27 03:27:43;;;;;;;7.25;4.65;;;25.60;55.50;;;;;;5071890;28;20433;-72
2023/05/27 03:30:13;;;;;;;5.68;4.35;;;25.50;55.00;;;;;;5071977;28;20044;-72
2023/05/27 03:32:45;;;;;;;5.13;4.22;;;25.50;55.40;;;;;;5068567;28;20052;-73
2023/05/27 03:35:11;;;;;;;6.60;4.72;;;25.50;55.20;;;;;;5051788;28;20041;-72
2023/05/27 03:37:37;;;;;;;6.78;4.55;;;25.50;55.30;;;;;;5051481;28;20044;-73
2023/05/27 03:40:08;;;;;;;6.47;4.53;;;25.40;55.10;;;;;;5068727;28;20044;-72
2023/05/27 03:42:35;;;;;;;5.93;3.88;;;25.50;54.90;;;;;;5068378;28;20044;-72
2023/05/27 03:45:01;;;;;;;5.53;4.68;;;25.40;55.30;;;;;;5068581;28;20045;-71
2023/05/27 03:47:28;;;;;;;6.63;4.03;;;25.50;55.10;;;;;;5068344;28;20119;-71
2023/05/27 03:49:54;;;;;;;4.32;3.53;;;25.40;55.40;;;;;;5068493;28;20143;-73
2023/05/27 03:52:20;;;;;;;5.65;4.13;;;25.40;55.30;;;;;;5068416;28;20063;-71
2023/05/27 03:54:46;;;;;;;11.43;3.83;;;25.50;55.40;;;;;;5068468;28;20075;-76
2023/05/27 03:57:13;;;;;;;3.35;2.97;;;25.40;55.30;;;;;;5031386;28;20045;-76
2023/05/27 03:59:39;;;;;;;2.55;2.10;;;25.50;55.20;;;;;;5047698;28;20044;-76
2023/05/27 04:02:05;;;;;;;4.72;3.47;;;25.50;55.20;;;;;;5031454;28;20053;-76
2023/05/27 04:04:31;;;;;;;3.15;2.40;;;25.50;55.10;;;;;;5047524;28;20116;-76
2023/05/27 04:06:57;;;;;;;4.88;3.80;;;25.60;55.00;;;;;;5035597;28;20177;-76
2023/05/27 04:09:23;;;;;;;4.60;2.95;;;25.60;55.00;;;;;;5054976;28;20425;-76
2023/05/27 04:11:49;;;;;;;4.20;3.42;;;25.60;54.80;;;;;;5055144;28;20052;-72
2023/05/27 04:14:15;;;;;;;4.00;3.63;;;25.50;54.90;;;;;;5071950;28;20117;-72
2023/05/27 04:16:41;;;;;;;6.47;3.83;;;25.60;56.40;;;;;;5055070;28;20178;-72
2023/05/27 04:19:07;;;;;;;4.20;3.55;;;25.80;58.00;;;;;;5055910;28;20101;-71
2023/05/27 04:21:35;;;;;;;6.53;4.63;;;26.00;59.60;;;;;;5073417;28;20067;-75
2023/05/27 04:24:03;;;;;;;4.47;3.90;;;26.00;58.80;;;;;;5054789;28;20053;-74
2023/05/27 04:26:30;;;;;;;7.88;4.53;;;26.10;55.80;;;;;;5038087;28;20041;-74
2023/05/27 04:28:59;;;;;;;5.03;4.45;;;25.90;54.90;;;;;;5070917;28;20040;-74
2023/05/27 04:31:28;;;;;;;7.22;4.30;;;25.80;54.80;;;;;;5091169;28;20044;-75
2023/05/27 04:33:59;;;;;;;4.90;3.85;;;25.90;54.70;;;;;;5092036;28;20570;-74
2023/05/27 04:36:27;;;;;;;7.05;3.78;;;26.00;54.80;;;;;;5091984;28;20032;-74
2023/05/27 04:39:03;;;;;;;5.53;4.15;;;25.90;54.20;;;;;;5074756;28;20391;-74
2023/05/27 04:41:32;;;;;;;8.38;4.60;;;25.80;54.00;;;;;;5075055;28;20044;-76
2023/05/27 04:44:01;;;;;;;5.53;3.88;;;26.00;54.20;;;;;;5091709;28;20548;-73
2023/05/27 04:46:31;;;;;;;5.53;4.55;;;25.90;53.70;;;;;;5091656;28;20048;-73
2023/05/27 04:48:57;;;;;;;8.38;3.95;;;25.90;53.60;;;;;;5091599;28;20055;-74
2023/05/27 04:51:23;;;;;;;6.82;4.65;;;26.00;53.90;;;;;;5074869;28;20040;-72
2023/05/27 04:53:50;;;;;;;2.75;2.55;;;26.00;53.70;;;;;;5092766;28;20488;-74
2023/05/27 04:56:18;;;;;;;9.20;3.65;;;26.00;50.80;;;;;;5076702;28;20035;-74
2023/05/27 04:58:48;;;;;;;5.18;3.80;;;25.80;49.40;;;;;;5092557;28;20051;-75
2023/05/27 05:01:17;;;;;;;5.50;3.97;;;25.90;49.20;;;;;;5075871;28;20048;-75
2023/05/27 05:04:12;;;;;;;6.85;4.35;;;25.80;48.90;;;;;;5092257;28;20031;-74
2023/05/27 05:06:42;;;;;;;6.22;3.80;;;25.70;50.00;;;;;;5062712;28;20570;-74
2023/05/27 05:09:10;;;;;;;5.97;5.15;;;25.80;53.80;;;;;;5092726;28;20036;-74
2023/05/27 05:11:37;;;;;;;6.78;4.68;;;25.90;54.50;;;;;;5092258;28;20040;-73
2023/05/27 05:14:03;;;;;;;4.80;3.65;;;26.00;56.20;;;;;;5092341;28;20032;-73
2023/05/27 05:16:30;;;;;;;8.02;3.95;;;26.20;54.10;;;;;;5075683;28;20038;-73
2023/05/27 05:18:57;;;;;;;4.00;3.58;;;26.10;53.30;;;;;;5091989;28;20119;-73
2023/05/27 05:21:23;;;;;;;4.05;3.03;;;26.20;53.90;;;;;;5092213;28;20126;-73
2023/05/27 05:23:50;;;;;;;8.13;3.53;;;26.20;54.30;;;;;;5092372;28;20141;-73
2023/05/27 05:26:17;;;;;;;6.18;4.20;;;26.10;53.20;;;;;;5092150;28;20032;-74
2023/05/27 05:28:45;;;;;;;4.50;3.60;;;26.30;53.60;;;;;;5092027;28;20111;-72
2023/05/27 05:31:11;;;;;;;6.60;3.70;;;26.20;53.40;;;;;;5075228;28;20452;-74
2023/05/27 05:33:37;;;;;;;3.78;3.08;;;26.10;52.80;;;;;;5092069;28;20028;-74
2023/05/27 05:36:04;;;;;;;3.35;2.63;;;26.10;53.40;;;;;;5091979;28;20051;-74
2023/05/27 05:38:52;;;;;;;4.05;3.63;;;26.10;52.80;;;;;;5090735;28;20036;-73
2023/05/27 05:41:18;;;;;;;4.63;3.13;;;26.10;52.30;;;;;;5091913;28;20040;-72
2023/05/27 05:43:45;;;;;;;3.33;2.80;;;26.20;52.50;;;;;;5092077;28;20036;-74
2023/05/27 05:46:11;;;;;;;4.70;2.85;;;26.20;52.20;;;;;;5091891;28;20059;-73
2023/05/27 05:48:37;;;;;;;3.58;2.78;;;26.20;51.40;;;;;;5092781;28;20543;-73
2023/05/27 05:51:05;;;;;;;5.75;3.45;;;26.20;51.70;;;;;;5075124;28;20028;-74
2023/05/27 05:53:32;;;;;;;3.53;2.83;;;26.20;51.50;;;;;;5091348;28;20400;-73
2023/05/27 05:55:58;;;;;;;4.50;3.03;;;26.10;51.40;;;;;;5092236;28;20035;-73
2023/05/27 05:58:25;;;;;;;5.22;2.70;;;26.10;51.10;;;;;;5071364;28;20024;-73
2023/05/27 06:00:51;;;;;;;2.67;2.38;;;26.20;50.70;;;;;;5089818;28;20059;-73
2023/05/27 06:03:36;;;;;;;2.20;1.40;;;26.00;49.70;;;;;;5090268;28;20036;-72
2023/05/27 06:06:04;;;;;;;4.85;2.83;;;26.00;49.40;;;;;;5073180;28;20143;-73
2023/05/27 06:08:32;;;;;;;7.10;4.10;;;25.90;49.60;;;;;;5073069;28;20040;-73
2023/05/27 06:11:04;;;;;;;3.53;3.20;;;26.00;52.00;;;;;;5073127;28;20051;-72
2023/05/27 06:13:33;;;;;;;7.18;3.90;;;25.80;50.60;;;;;;5073299;28;20068;-72
2023/05/27 06:16:00;;;;;;;5.38;3.35;;;25.90;50.50;;;;;;5069557;28;20071;-73
2023/05/27 06:18:26;;;;;;;4.68;3.28;;;25.80;49.80;;;;;;5052792;28;20048;-72
2023/05/27 06:20:52;;;;;;;3.63;3.33;;;25.80;49.80;;;;;;5056743;28;20167;-72
2023/05/27 06:23:21;;;;;;;6.00;3.25;;;25.70;50.00;;;;;;5102533;28;20054;-73
2023/05/27 06:26:05;;;;;;;7.10;3.10;;;25.70;50.20;;;;;;5089693;28;20052;-75
2023/05/27 06:28:38;;;;;;;6.00;3.67;;;25.70;50.10;;;;;;5089799;28;20108;-71
2023/05/27 06:31:04;;;;;;;6.80;3.50;;;25.80;50.00;;;;;;5088471;28;20488;-70
2023/05/27 06:33:30;;;;;;;1.35;1.25;;;25.80;50.00;;;;;;5072600;28;20150;-70
2023/05/27 06:35:56;;;;;;;8.50;4.50;;;25.80;50.30;;;;;;5072396;28;20130;-69
2023/05/27 06:38:23;;;;;;;5.13;3.97;;;25.90;50.30;;;;;;5072524;28;20063;-71
2023/05/27 06:40:51;;;;;;;6.32;4.05;;;26.00;51.00;;;;;;5072352;28;20048;-70
2023/05/27 06:43:17;;;;;;;5.18;4.07;;;26.00;51.10;;;;;;5089416;28;20082;-72
2023/05/27 06:45:52;;;;;;;5.63;4.20;;;26.00;51.40;;;;;;5089628;28;20048;-70
2023/05/27 06:48:41;;;;;;;5.65;3.83;;;26.00;51.60;;;;;;5091467;28;20039;-71
2023/05/27 06:51:08;;;;;;;5.57;4.53;;;26.00;51.70;;;;;;5090129;28;20068;-70
2023/05/27 06:53:34;;;;;;;8.23;4.57;;;26.10;51.70;;;;;;5090368;28;20476;-70
2023/05/27 06:56:09;;;;;;;7.22;5.53;;;26.00;52.90;;;;;;5090168;28;20042;-70
2023/05/27 06:58:50;;;;;;;7.93;4.00;;;25.90;53.50;;;;;;5086575;28;20101;-71
2023/05/27 07:01:17;;;;;;;1.88;1.55;;;26.00;53.70;;;;;;5089892;28;20074;-72
2023/05/27 07:03:50;;;;;;;0.70;0.70;;;26.00;53.00;;;;;;5071720;28;20107;-71
2023/05/27 07:06:22;;;;;;;8.48;3.78;;;25.90;51.90;;;;;;5073154;28;20032;-71
2023/05/27 07:08:51;;;;;;;5.93;3.95;;;25.90;51.50;;;;;;5089731;28;20479;-72
2023/05/27 07:11:21;;;;;;;6.68;3.95;;;25.80;51.40;;;;;;5089811;28;20036;-72
2023/05/27 07:13:48;;;;;;;2.70;2.00;;;25.80;51.10;;;;;;5089521;28;20032;-71
2023/05/27 07:16:17;;;;;;;5.68;4.07;;;25.90;51.20;;;;;;5089692;28;20090;-71
2023/05/27 07:18:45;;;;;;;4.57;3.65;;;26.00;51.40;;;;;;5089325;28;20036;-72
2023/05/27 07:21:12;;;;;;;5.85;4.40;;;26.10;51.30;;;;;;5089756;28;20048;-71
2023/05/27 07:23:38;;;;;;;5.32;3.42;;;26.00;51.10;;;;;;5089532;28;20063;-71
2023/05/27 07:26:20;;;;;;;2.65;2.38;;;26.00;51.10;;;;;;5089714;28;20028;-71
2023/05/27 07:28:46;;;;;;;5.65;3.03;;;26.00;51.00;;;;;;5089948;28;20031;-70
2023/05/27 07:31:20;;;;;;;10.65;3.38;;;26.00;50.00;;;;;;5058145;28;20048;-70
2023/05/27 07:33:52;;;;;;;3.95;2.83;;;26.00;50.00;;;;;;5089824;28;20040;-69
2023/05/27 07:36:20;;;;;;;3.22;2.90;;;26.00;49.80;;;;;;5088279;28;20028;-70
2023/05/27 07:38:46;;;;;;;4.47;3.35;;;26.10;50.00;;;;;;5090844;28;20028;-68
2023/05/27 07:41:12;;;;;;;6.55;2.80;;;26.10;49.80;;;;;;5089789;28;20039;-74
2023/05/27 07:43:39;;;;;;;5.18;3.25;;;26.10;49.50;;;;;;5109250;28;20059;-71
2023/05/27 07:46:05;;;;;;;4.88;3.25;;;26.20;49.80;;;;;;5099260;28;20047;-71
2023/05/27 07:48:35;;;;;;;9.15;4.63;;;26.00;49.70;;;;;;5112400;28;20035;-73
2023/05/27 07:51:01;;;;;;;5.90;3.28;;;26.10;49.30;;;;;;5114208;28;20039;-72
2023/05/27 07:53:27;;;;;;;10.48;4.63;;;26.10;49.50;;;;;;5074862;28;20609;-72
2023/05/27 07:55:54;;;;;;;3.70;1.90;;;26.20;49.30;;;;;;5081511;28;20032;-72
2023/05/27 07:58:20;;;;;;;4.72;3.15;;;26.10;50.20;;;;;;5103571;28;20038;-71
2023/05/27 08:00:59;;;;;;;2.25;1.80;;;26.20;51.00;;;;;;5107766;28;20392;-73
2023/05/27 08:03:25;;;;;;;0.68;0.68;;;26.10;50.90;;;;;;5115312;28;20072;-72
2023/05/27 08:06:11;;;;;;;4.80;2.78;;;26.20;51.10;;;;;;5104677;28;20048;-69
2023/05/27 08:09:01;;;;;;;5.15;3.35;;;26.10;50.60;;;;;;5071985;28;20471;-72
2023/05/27 08:12:03;;;;;;;5.43;4.28;;;26.30;50.50;;;;;;4973714;28;20042;-73
2023/05/27 08:14:43;;;;;;;3.58;3.13;;;26.20;50.40;;;;;;4973496;28;20043;-71
2023/05/27 08:17:44;;;;;;;2.70;2.25;;;26.10;50.30;;;;;;4942557;29;20043;-71
2023/05/27 08:20:26;;;;;;;0.80;0.80;;;26.10;50.60;;;;;;4938218;28;20067;-70
2023/05/27 08:23:11;;;;;;;9.57;3.45;;;26.10;50.50;;;;;;4953729;29;20063;-71
2023/05/27 08:25:51;;;;;;;6.80;4.43;;;26.20;50.40;;;;;;4948718;29;20054;-71
2023/05/27 08:28:37;;;;;;;3.33;2.47;;;26.10;50.50;;;;;;4953852;28;20054;-72
2023/05/27 08:31:28;;;;;;;3.55;2.90;;;26.10;50.60;;;;;;4953451;28;20446;-71
2023/05/27 08:33:57;;;;;;;6.43;4.00;;;26.20;50.60;;;;;;4953491;28;20058;-69
2023/05/27 08:36:23;;;;;;;4.57;2.92;;;26.20;50.40;;;;;;4937878;28;20166;-69
2023/05/27 08:38:51;;;;;;;10.30;4.90;;;26.30;50.20;;;;;;4937428;29;20102;-68
2023/05/27 08:41:21;;;;;;;5.45;3.30;;;26.30;50.00;;;;;;4952827;28;20203;-69
2023/05/27 08:43:49;;;;;;;7.50;3.35;;;26.30;50.10;;;;;;4953789;28;20598;-72
2023/05/27 08:46:16;;;;;;;3.47;2.70;;;26.20;50.20;;;;;;4999759;28;20537;-70
2023/05/27 08:48:43;;;;;;;26.38;13.63;;;26.20;50.20;;;;;;5015191;28;20025;-70
2023/05/27 08:51:10;;;;;;;4.65;3.83;;;26.20;50.20;;;;;;5027742;28;20052;-71
2023/05/27 08:53:38;;;;;;;3.53;2.35;;;26.10;50.10;;;;;;5088517;28;20035;-70
2023/05/27 08:56:08;;;;;;;5.18;4.13;;;26.30;50.20;;;;;;5089174;28;20496;-72
2023/05/27 08:58:37;;;;;;;9.05;5.40;;;26.20;50.30;;;;;;5089224;28;20369;-71
2023/05/27 09:01:05;;;;;;;6.82;4.13;;;26.30;50.30;;;;;;5088934;28;20094;-71
2023/05/27 09:03:31;;;;;;;4.70;2.80;;;26.40;50.40;;;;;;5073612;28;20116;-71
2023/05/27 09:05:58;;;;;;;2.88;2.20;;;26.20;50.30;;;;;;5072376;28;20563;-72
2023/05/27 09:08:24;;;;;;;8.05;3.80;;;26.10;50.50;;;;;;5073514;28;20032;-71
2023/05/27 09:10:50;;;;;;;8.30;5.30;;;26.10;50.70;;;;;;5073006;28;20419;-70
2023/05/27 09:13:26;;;;;;;5.85;4.13;;;26.20;50.80;;;;;;5073662;28;20039;-75
2023/05/27 09:15:59;;;;;;;10.50;7.43;;;26.20;50.90;;;;;;5073394;28;20029;-70
2023/05/27 09:18:31;;;;;;;9.57;5.00;;;26.10;53.30;;;;;;5073533;28;20039;-73
2023/05/27 09:20:57;;;;;;;17.08;9.30;;;26.30;52.60;;;;;;5073017;28;20041;-70
2023/05/27 09:23:23;;;;;;;16.70;9.02;;;26.30;51.40;;;;;;5088892;28;20458;-72
2023/05/27 09:25:50;;;;;;;13.88;6.22;;;26.50;51.50;;;;;;5088861;28;20476;-73
2023/05/27 09:28:26;;;;;;;7.60;5.00;;;26.40;51.50;;;;;;5073191;28;20392;-73
2023/05/27 09:31:04;;;;;;;6.80;4.00;;;26.60;50.50;;;;;;5071531;28;20385;-71
2023/05/27 09:33:40;;;;;;;6.78;5.15;;;26.60;50.20;;;;;;5072919;28;20071;-71
2023/05/27 09:36:08;;;;;;;5.55;4.75;;;26.50;50.50;;;;;;5088596;28;20033;-71
2023/05/27 09:38:35;;;;;;;10.50;6.05;;;26.70;50.60;;;;;;5072734;28;20461;-74
2023/05/27 09:41:03;;;;;;;8.35;5.63;;;26.70;50.70;;;;;;5073968;28;20047;-70
2023/05/27 09:43:29;;;;;;;13.50;5.53;;;26.80;51.10;;;;;;5072699;28;20795;-73
2023/05/27 09:46:01;;;;;;;8.80;4.82;;;26.80;51.60;;;;;;5072856;28;20107;-75
2023/05/27 09:48:31;;;;;;;7.95;5.05;;;26.90;53.00;;;;;;5071401;28;20449;-73
2023/05/27 09:50:58;;;;;;;6.47;5.15;;;27.00;53.30;;;;;;5071305;28;20036;-72
2023/05/27 09:53:26;;;;;;;10.07;5.80;;;26.90;51.30;;;;;;5072755;28;20144;-71
2023/05/27 09:55:56;;;;;;;9.43;5.70;;;26.90;50.30;;;;;;5072608;28;20116;-72
2023/05/27 09:58:24;;;;;;;7.25;5.20;;;26.90;51.80;;;;;;5072429;28;20410;-73
2023/05/27 10:00:50;;;;;;;16.02;5.43;;;26.90;49.90;;;;;;5072130;28;20496;-72
2023/05/27 10:03:20;;;;;;;11.95;5.75;;;26.90;50.00;;;;;;5072536;28;20109;-70
2023/05/27 10:05:49;;;;;;;9.52;5.40;;;27.00;51.00;;;;;;5071243;28;20024;-71
2023/05/27 10:08:15;;;;;;;7.78;5.70;;;26.90;51.90;;;;;;5072191;28;20058;-72
2023/05/27 10:10:41;;;;;;;11.00;5.65;;;26.90;52.30;;;;;;5072676;28;20410;-72
2023/05/27 10:13:08;;;;;;;8.45;4.80;;;27.00;52.30;;;;;;5072377;28;20392;-71
2023/05/27 10:15:35;;;;;;;7.75;5.55;;;27.20;56.30;;;;;;5072156;28;20028;-71
2023/05/27 10:18:10;;;;;;;6.50;4.35;;;27.80;59.60;;;;;;5071605;28;20547;-72
2023/05/27 10:20:38;;;;;;;10.38;6.22;;;28.30;58.00;;;;;;5078022;28;20045;-72
2023/05/27 10:23:25;;;;;;;9.90;5.65;;;28.40;48.30;;;;;;5087826;28;20056;-72
2023/05/27 10:25:53;;;;;;;12.63;4.82;;;28.20;47.20;;;;;;5092350;28;20036;-73
2023/05/27 10:28:39;;;;;;;9.98;6.95;;;28.00;47.60;;;;;;5092318;28;20134;-72
2023/05/27 10:31:17;;;;;;;9.57;5.38;;;27.90;50.20;;;;;;5092362;28;20164;-73
2023/05/27 10:33:49;;;;;;;8.80;5.10;;;27.90;52.30;;;;;;5089443;28;20473;-71
2023/05/27 10:36:16;;;;;;;9.57;5.13;;;28.00;51.70;;;;;;5089717;28;20040;-71
2023/05/27 10:38:53;;;;;;;10.63;4.80;;;27.90;50.00;;;;;;5089387;28;20143;-71
2023/05/27 10:41:20;;;;;;;7.03;4.10;;;27.90;53.60;;;;;;5086317;28;20071;-73
2023/05/27 10:43:58;;;;;;;5.43;4.53;;;27.80;54.30;;;;;;5089454;28;20411;-72
2023/05/27 10:46:24;;;;;;;7.65;3.97;;;27.90;52.30;;;;;;5089290;28;20040;-71
2023/05/27 10:48:50;;;;;;;6.70;4.03;;;27.80;52.20;;;;;;5081374;28;20070;-73
2023/05/27 10:51:16;;;;;;;6.57;3.95;;;27.70;51.50;;;;;;5069016;28;20059;-73
2023/05/27 10:53:42;;;;;;;4.93;3.63;;;27.70;51.00;;;;;;5069345;28;20044;-71
2023/05/27 10:56:09;;;;;;;8.05;3.53;;;27.60;51.00;;;;;;5069313;28;20041;-72
2023/05/27 10:58:37;;;;;;;9.18;4.50;;;27.50;51.50;;;;;;5087366;28;20048;-71
2023/05/27 11:01:11;;;;;;;11.85;4.82;;;27.50;51.80;;;;;;5089126;28;20063;-72
2023/05/27 11:03:44;;;;;;;5.90;4.30;;;27.50;52.00;;;;;;5088924;28;20036;-73
2023/05/27 11:06:11;;;;;;;7.80;4.40;;;27.50;53.60;;;;;;5089031;28;20586;-74
2023/05/27 11:08:37;;;;;;;8.65;5.18;;;27.60;51.40;;;;;;5089031;28;20048;-74
2023/05/27 11:11:08;;;;;;;5.45;4.13;;;27.70;51.40;;;;;;5089859;28;20050;-74
2023/05/27 11:13:42;;;;;;;6.90;4.28;;;27.60;51.60;;;;;;5090338;28;20032;-73
2023/05/27 11:16:09;;;;;;;5.68;4.15;;;27.60;51.60;;;;;;5077280;28;20062;-71
2023/05/27 11:18:38;;;;;;;6.57;4.68;;;27.50;52.20;;;;;;5091049;28;20040;-73
2023/05/27 11:21:09;;;;;;;7.43;4.60;;;27.50;52.50;;;;;;5090053;28;20460;-71
2023/05/27 11:23:36;;;;;;;11.15;4.05;;;27.50;52.40;;;;;;5091266;28;20079;-71
2023/05/27 11:26:02;;;;;;;5.18;4.07;;;27.40;52.70;;;;;;5091163;28;20035;-71
2023/05/27 11:28:28;;;;;;;6.30;4.25;;;27.30;52.90;;;;;;5091519;28;20078;-72
2023/05/27 11:31:04;;;;;;;9.13;4.43;;;27.30;53.00;;;;;;5091005;28;20547;-70
2023/05/27 11:33:32;;;;;;;4.90;3.90;;;27.20;53.00;;;;;;5091267;28;20020;-72
2023/05/27 11:36:11;;;;;;;10.95;4.32;;;27.30;53.10;;;;;;5089710;28;20085;-74
2023/05/27 11:38:48;;;;;;;11.55;3.70;;;27.20;53.00;;;;;;5091153;28;20063;-73
2023/05/27 11:41:14;;;;;;;6.65;3.75;;;27.20;53.30;;;;;;5091356;28;20040;-73
2023/05/27 11:44:13;;;;;;;4.50;3.80;;;27.00;52.20;;;;;;5090112;28;20035;-72
2023/05/27 11:46:41;;;;;;;4.82;3.10;;;27.00;52.90;;;;;;5048477;28;20497;-74
2023/05/27 11:49:12;;;;;;;5.38;3.20;;;27.20;53.00;;;;;;5035802;28;20061;-72
2023/05/27 11:51:40;;;;;;;5.47;3.17;;;27.20;53.00;;;;;;5029923;28;20029;-72
2023/05/27 11:54:07;;;;;;;6.97;4.25;;;27.10;53.10;;;;;;5048521;28;20029;-74
2023/05/27 11:56:33;;;;;;;3.58;3.10;;;27.10;53.00;;;;;;5048082;28;20567;-72
2023/05/27 11:58:59;;;;;;;10.15;3.42;;;27.10;51.90;;;;;;5048345;28;20147;-72
2023/05/27 12:01:28;;;;;;;7.65;4.15;;;27.30;52.80;;;;;;5047918;28;20116;-73
2023/05/27 12:03:54;;;;;;;4.57;3.58;;;27.10;52.80;;;;;;5048344;28;20488;-72
2023/05/27 12:06:20;;;;;;;6.05;3.28;;;27.20;53.10;;;;;;5048308;28;20342;-74
2023/05/27 12:08:46;;;;;;;3.95;2.65;;;27.10;53.20;;;;;;5048334;28;20060;-75
2023/05/27 12:11:12;;;;;;;10.30;3.22;;;27.10;52.70;;;;;;5047467;28;20060;-77
2023/05/27 12:13:38;;;;;;;4.30;3.25;;;27.10;53.20;;;;;;5048738;28;20033;-76
2023/05/27 12:16:04;;;;;;;8.10;4.22;;;27.10;53.30;;;;;;5048319;28;20052;-75
2023/05/27 12:18:31;;;;;;;8.40;4.20;;;27.00;55.00;;;;;;5031516;28;20091;-75
2023/05/27 12:20:57;;;;;;;6.78;4.47;;;27.20;53.40;;;;;;5048115;28;20732;-74
2023/05/27 12:23:23;;;;;;;5.90;3.20;;;27.50;52.60;;;;;;5089649;28;20102;-74
2023/05/27 12:25:49;;;;;;;8.57;3.10;;;27.80;54.40;;;;;;5090799;28;20036;-74
2023/05/27 12:28:15;;;;;;;6.28;3.38;;;27.90;53.00;;;;;;5092287;28;20028;-74
2023/05/27 12:30:41;;;;;;;2.67;2.33;;;27.80;54.50;;;;;;5094397;28;20040;-72
2023/05/27 12:33:07;;;;;;;3.22;2.92;;;27.50;51.80;;;;;;5094652;28;20105;-74
2023/05/27 12:35:33;;;;;;;2.90;2.17;;;27.60;51.30;;;;;;5093580;28;20386;-73
2023/05/27 12:38:00;;;;;;;3.42;2.28;;;27.30;50.30;;;;;;5094586;28;20028;-71
2023/05/27 12:40:26;;;;;;;3.72;2.35;;;27.30;50.70;;;;;;5094551;28;20494;-74
2023/05/27 12:42:53;;;;;;;14.52;1.90;;;27.20;48.10;;;;;;5092860;28;20093;-74
2023/05/27 12:45:23;;;;;;;1.25;1.15;;;27.10;47.80;;;;;;5094304;28;20399;-76
2023/05/27 12:47:49;;;;;;;2.55;1.80;;;27.20;47.00;;;;;;5094512;28;20028;-74
2023/05/27 12:50:16;;;;;;;2.53;1.70;;;27.10;47.50;;;;;;5094039;28;20028;-74
2023/05/27 12:52:46;;;;;;;1.70;1.60;;;27.20;48.90;;;;;;5094138;28;20436;-74
2023/05/27 12:55:19;;;;;;;6.90;2.15;;;27.30;50.00;;;;;;5094173;28;20077;-74